sensor_id;sensor_type;location;lat;lon;timestamp;pressure;altitude;pressure_sealevel;temperature;humidity
38780;BME280;29273;49.962;9.768;2023-03-31T00:01:36;99082.84;;;14.27;58.18
38780;BME280;29273;49.962;9.768;2023-03-31T00:04:07;99081.25;;;14.25;58.22
38780;BME280;29273;49.962;9.768;2023-03-31T00:06:37;99072.50;;;14.30;58.50
38780;BME280;29273;49.962;9.768;2023-03-31T00:09:04;99069.75;;;14.25;58.06
38780;BME280;29273;49.962;9.768;2023-03-31T00:11:30;99072.91;;;14.22;58.51
38780;BME280;29273;49.962;9.768;2023-03-31T00:13:56;99068.88;;;14.19;58.41
38780;BME280;29273;49.962;9.768;2023-03-31T00:16:21;99061.69;;;14.20;58.34
38780;BME280;29273;49.962;9.768;2023-03-31T00:18:47;99051.28;;;14.18;58.14
38780;BME280;29273;49.962;9.768;2023-03-31T00:21:20;99050.81;;;14.21;58.68
38780;BME280;29273;49.962;9.768;2023-03-31T00:24:09;99045.97;;;14.18;58.93
38780;BME280;29273;49.962;9.768;2023-03-31T00:26:36;99035.78;;;14.15;58.39
38780;BME280;29273;49.962;9.768;2023-03-31T00:29:04;99028.63;;;14.16;58.76
38780;BME280;29273;49.962;9.768;2023-03-31T00:31:30;99027.50;;;14.12;58.47
38780;BME280;29273;49.962;9.768;2023-03-31T00:33:56;99020.56;;;14.11;58.46
38780;BME280;29273;49.962;9.768;2023-03-31T00:36:22;99002.97;;;14.10;58.17
38780;BME280;29273;49.962;9.768;2023-03-31T00:38:58;99000.63;;;14.13;58.68
38780;BME280;29273;49.962;9.768;2023-03-31T00:41:29;99001.59;;;14.07;58.45
38780;BME280;29273;49.962;9.768;2023-03-31T00:44:08;98997.66;;;14.10;58.82
38780;BME280;29273;49.962;9.768;2023-03-31T00:46:41;98994.44;;;14.07;58.72
38780;BME280;29273;49.962;9.768;2023-03-31T00:49:36;98993.28;;;14.03;58.42
38780;BME280;29273;49.962;9.768;2023-03-31T00:54:39;98988.38;;;13.95;58.36
38780;BME280;29273;49.962;9.768;2023-03-31T00:57:07;98980.31;;;13.90;58.12
38780;BME280;29273;49.962;9.768;2023-03-31T00:59:37;98970.75;;;13.89;58.14
38780;BME280;29273;49.962;9.768;2023-03-31T01:02:04;98963.16;;;13.81;57.89
38780;BME280;29273;49.962;9.768;2023-03-31T01:04:34;98957.00;;;13.80;58.42
38780;BME280;29273;49.962;9.768;2023-03-31T01:07:07;98945.81;;;13.78;58.27
38780;BME280;29273;49.962;9.768;2023-03-31T01:09:37;98953.97;;;13.72;58.54
38780;BME280;29273;49.962;9.768;2023-03-31T01:12:06;98944.13;;;13.72;58.54
38780;BME280;29273;49.962;9.768;2023-03-31T01:14:32;98940.59;;;13.66;58.25
38780;BME280;29273;49.962;9.768;2023-03-31T01:16:58;98932.84;;;13.65;58.50
38780;BME280;29273;49.962;9.768;2023-03-31T01:23:17;98936.81;;;13.62;58.78
38780;BME280;29273;49.962;9.768;2023-03-31T01:44:26;98917.38;;;13.62;59.47
38780;BME280;29273;49.962;9.768;2023-03-31T01:47:01;98909.63;;;13.60;59.40
38780;BME280;29273;49.962;9.768;2023-03-31T01:49:37;98903.81;;;13.63;59.75
38780;BME280;29273;49.962;9.768;2023-03-31T01:52:20;98898.50;;;13.63;59.97
38780;BME280;29273;49.962;9.768;2023-03-31T01:54:53;98900.91;;;13.65;59.65
38780;BME280;29273;49.962;9.768;2023-03-31T01:57:23;98896.16;;;13.67;59.88
38780;BME280;29273;49.962;9.768;2023-03-31T02:00:06;98893.25;;;13.68;59.93
38780;BME280;29273;49.962;9.768;2023-03-31T02:02:48;98893.00;;;13.70;59.92
38780;BME280;29273;49.962;9.768;2023-03-31T02:05:24;98876.81;;;13.72;59.82
38780;BME280;29273;49.962;9.768;2023-03-31T02:07:57;98870.69;;;13.71;59.75
38780;BME280;29273;49.962;9.768;2023-03-31T02:10:25;98877.59;;;13.72;59.71
38780;BME280;29273;49.962;9.768;2023-03-31T02:12:58;98863.50;;;13.72;59.72
38780;BME280;29273;49.962;9.768;2023-03-31T02:15:28;98864.63;;;13.76;60.04
38780;BME280;29273;49.962;9.768;2023-03-31T02:17:57;98857.69;;;13.75;59.91
38780;BME280;29273;49.962;9.768;2023-03-31T02:20:27;98857.44;;;13.76;59.66
38780;BME280;29273;49.962;9.768;2023-03-31T02:22:55;98852.94;;;13.77;59.73
38780;BME280;29273;49.962;9.768;2023-03-31T02:25:25;98847.91;;;13.80;59.65
38780;BME280;29273;49.962;9.768;2023-03-31T02:27:57;98840.47;;;13.60;60.97
38780;BME280;29273;49.962;9.768;2023-03-31T02:30:35;98839.13;;;13.80;60.32
38780;BME280;29273;49.962;9.768;2023-03-31T02:33:03;98829.22;;;13.75;59.38
38780;BME280;29273;49.962;9.768;2023-03-31T02:35:29;98821.81;;;13.77;59.46
38780;BME280;29273;49.962;9.768;2023-03-31T02:37:56;98821.00;;;13.77;59.46
38780;BME280;29273;49.962;9.768;2023-03-31T02:40:23;98828.50;;;13.80;59.28
38780;BME280;29273;49.962;9.768;2023-03-31T02:42:52;98810.91;;;13.79;59.42
38780;BME280;29273;49.962;9.768;2023-03-31T02:45:40;98807.19;;;13.80;60.08
38780;BME280;29273;49.962;9.768;2023-03-31T02:48:20;98795.28;;;13.82;60.14
38780;BME280;29273;49.962;9.768;2023-03-31T02:51:08;98812.53;;;13.80;60.08
38780;BME280;29273;49.962;9.768;2023-03-31T02:59:47;98801.03;;;13.74;59.99
38780;BME280;29273;49.962;9.768;2023-03-31T03:11:31;98763.13;;;13.67;59.88
38780;BME280;29273;49.962;9.768;2023-03-31T03:14:31;98752.19;;;13.63;59.95
38780;BME280;29273;49.962;9.768;2023-03-31T03:17:11;98749.53;;;13.63;60.15
38780;BME280;29273;49.962;9.768;2023-03-31T03:19:40;98748.97;;;13.61;59.84
38780;BME280;29273;49.962;9.768;2023-03-31T03:22:07;98746.81;;;13.58;59.85
38780;BME280;29273;49.962;9.768;2023-03-31T03:24:32;98746.81;;;13.58;59.63
38780;BME280;29273;49.962;9.768;2023-03-31T03:26:59;98743.34;;;13.58;59.66
38780;BME280;29273;49.962;9.768;2023-03-31T03:29:25;98726.56;;;13.57;59.79
38780;BME280;29273;49.962;9.768;2023-03-31T03:31:51;98725.53;;;13.58;59.74
38780;BME280;29273;49.962;9.768;2023-03-31T03:34:17;98719.41;;;13.58;59.82
38780;BME280;29273;49.962;9.768;2023-03-31T03:36:44;98717.28;;;13.60;59.98
38780;BME280;29273;49.962;9.768;2023-03-31T03:39:10;98711.19;;;13.59;59.88
38780;BME280;29273;49.962;9.768;2023-03-31T03:41:36;98701.34;;;13.60;60.07
38780;BME280;29273;49.962;9.768;2023-03-31T03:44:02;98696.81;;;13.60;59.77
38780;BME280;29273;49.962;9.768;2023-03-31T03:46:28;98700.53;;;13.59;59.86
38780;BME280;29273;49.962;9.768;2023-03-31T03:48:53;98694.97;;;13.61;60.01
38780;BME280;29273;49.962;9.768;2023-03-31T03:51:19;98684.56;;;13.59;59.64
38780;BME280;29273;49.962;9.768;2023-03-31T03:53:44;98685.38;;;13.60;59.87
38780;BME280;29273;49.962;9.768;2023-03-31T03:56:10;98675.78;;;13.59;59.66
38780;BME280;29273;49.962;9.768;2023-03-31T03:58:35;98667.78;;;13.59;60.06
38780;BME280;29273;49.962;9.768;2023-03-31T04:01:01;98660.88;;;13.58;60.23
38780;BME280;29273;49.962;9.768;2023-03-31T04:03:26;98656.91;;;13.60;60.50
38780;BME280;29273;49.962;9.768;2023-03-31T04:05:52;98656.09;;;13.60;60.37
38780;BME280;29273;49.962;9.768;2023-03-31T04:08:18;98643.59;;;13.60;60.40
38780;BME280;29273;49.962;9.768;2023-03-31T04:10:44;98640.69;;;13.62;60.76
38780;BME280;29273;49.962;9.768;2023-03-31T04:13:10;98642.56;;;13.61;60.86
38780;BME280;29273;49.962;9.768;2023-03-31T04:15:36;98631.13;;;13.61;60.96
38780;BME280;29273;49.962;9.768;2023-03-31T04:18:01;98640.94;;;13.60;60.98
38780;BME280;29273;49.962;9.768;2023-03-31T04:20:27;98632.16;;;13.60;60.76
38780;BME280;29273;49.962;9.768;2023-03-31T04:22:55;98632.97;;;13.60;61.04
38780;BME280;29273;49.962;9.768;2023-03-31T04:25:20;98634.81;;;13.60;60.60
38780;BME280;29273;49.962;9.768;2023-03-31T04:27:49;98639.66;;;13.63;61.04
38780;BME280;29273;49.962;9.768;2023-03-31T04:30:24;98637.53;;;13.65;60.90
38780;BME280;29273;49.962;9.768;2023-03-31T04:32:57;98632.47;;;13.63;61.11
38780;BME280;29273;49.962;9.768;2023-03-31T04:35:25;98610.63;;;13.61;61.11
38780;BME280;29273;49.962;9.768;2023-03-31T04:37:51;98609.03;;;13.60;60.90
38780;BME280;29273;49.962;9.768;2023-03-31T04:40:23;98600.25;;;13.60;61.08
38780;BME280;29273;49.962;9.768;2023-03-31T04:42:49;98595.97;;;13.59;61.06
38780;BME280;29273;49.962;9.768;2023-03-31T04:45:16;98579.75;;;13.60;61.17
38780;BME280;29273;49.962;9.768;2023-03-31T04:47:42;98548.09;;;13.59;61.21
38780;BME280;29273;49.962;9.768;2023-03-31T04:50:08;98541.19;;;13.58;61.46
38780;BME280;29273;49.962;9.768;2023-03-31T04:52:35;98551.00;;;13.57;61.24
38780;BME280;29273;49.962;9.768;2023-03-31T04:55:00;98563.50;;;13.57;61.26
38780;BME280;29273;49.962;9.768;2023-03-31T04:57:26;98573.59;;;13.55;61.22
38780;BME280;29273;49.962;9.768;2023-03-31T04:59:51;98570.94;;;13.55;61.19
38780;BME280;29273;49.962;9.768;2023-03-31T05:02:16;98584.50;;;13.53;61.31
38780;BME280;29273;49.962;9.768;2023-03-31T05:04:48;98575.72;;;13.53;60.98
38780;BME280;29273;49.962;9.768;2023-03-31T05:07:14;98566.38;;;13.50;61.29
38780;BME280;29273;49.962;9.768;2023-03-31T05:09:39;98554.94;;;13.49;61.46
38780;BME280;29273;49.962;9.768;2023-03-31T05:12:05;98553.31;;;13.48;61.54
38780;BME280;29273;49.962;9.768;2023-03-31T05:14:30;98550.41;;;13.50;61.42
38780;BME280;29273;49.962;9.768;2023-03-31T05:16:56;98535.78;;;13.47;61.31
38780;BME280;29273;49.962;9.768;2023-03-31T05:19:24;98539.22;;;13.48;61.48
38780;BME280;29273;49.962;9.768;2023-03-31T05:21:49;98533.91;;;13.48;61.35
38780;BME280;29273;49.962;9.768;2023-03-31T05:24:15;98522.47;;;13.47;61.66
38780;BME280;29273;49.962;9.768;2023-03-31T05:26:40;98527.53;;;13.49;61.36
38780;BME280;29273;49.962;9.768;2023-03-31T05:29:08;98519.56;;;13.49;61.58
38780;BME280;29273;49.962;9.768;2023-03-31T05:31:33;98512.38;;;13.49;61.39
38780;BME280;29273;49.962;9.768;2023-03-31T05:33:59;98508.94;;;13.49;61.63
38780;BME280;29273;49.962;9.768;2023-03-31T05:36:24;98511.31;;;13.50;61.37
38780;BME280;29273;49.962;9.768;2023-03-31T05:38:51;98503.31;;;13.50;61.38
38780;BME280;29273;49.962;9.768;2023-03-31T05:41:16;98513.97;;;13.50;61.23
38780;BME280;29273;49.962;9.768;2023-03-31T05:43:42;98507.84;;;13.50;61.59
38780;BME280;29273;49.962;9.768;2023-03-31T05:46:08;98512.94;;;13.51;61.74
38780;BME280;29273;49.962;9.768;2023-03-31T05:48:34;98512.94;;;13.51;61.83
38780;BME280;29273;49.962;9.768;2023-03-31T05:51:00;98525.19;;;13.53;62.04
38780;BME280;29273;49.962;9.768;2023-03-31T05:53:26;98525.97;;;13.53;61.82
38780;BME280;29273;49.962;9.768;2023-03-31T05:55:58;98525.22;;;13.58;62.13
38780;BME280;29273;49.962;9.768;2023-03-31T05:58:25;98516.38;;;13.52;61.48
38780;BME280;29273;49.962;9.768;2023-03-31T06:01:08;98515.63;;;13.57;61.71
38780;BME280;29273;49.962;9.768;2023-03-31T06:03:36;98521.16;;;13.50;61.88
38780;BME280;29273;49.962;9.768;2023-03-31T06:06:03;98519.56;;;13.49;61.72
38780;BME280;29273;49.962;9.768;2023-03-31T06:08:33;98509.97;;;13.48;61.84
38780;BME280;29273;49.962;9.768;2023-03-31T06:10:59;98510.22;;;13.46;62.06
38780;BME280;29273;49.962;9.768;2023-03-31T06:13:25;98521.09;;;13.45;62.13
38780;BME280;29273;49.962;9.768;2023-03-31T06:15:58;98519.28;;;13.50;62.10
38780;BME280;29273;49.962;9.768;2023-03-31T06:18:26;98509.44;;;13.46;62.42
38780;BME280;29273;49.962;9.768;2023-03-31T06:20:53;98502.19;;;13.41;62.79
38780;BME280;29273;49.962;9.768;2023-03-31T06:23:19;98499.00;;;13.39;62.79
38780;BME280;29273;49.962;9.768;2023-03-31T06:25:44;98497.38;;;13.38;62.85
38780;BME280;29273;49.962;9.768;2023-03-31T06:28:10;98496.59;;;13.38;62.79
38780;BME280;29273;49.962;9.768;2023-03-31T06:30:36;98496.28;;;13.34;62.88
38780;BME280;29273;49.962;9.768;2023-03-31T06:33:01;98483.78;;;13.35;62.95
38780;BME280;29273;49.962;9.768;2023-03-31T06:35:27;98469.69;;;13.34;63.19
38780;BME280;29273;49.962;9.768;2023-03-31T06:37:52;98481.59;;;13.31;63.32
38780;BME280;29273;49.962;9.768;2023-03-31T06:40:18;98487.75;;;13.32;63.68
38780;BME280;29273;49.962;9.768;2023-03-31T06:42:43;98470.16;;;13.31;63.59
38780;BME280;29273;49.962;9.768;2023-03-31T06:45:09;98469.13;;;13.32;63.61
38780;BME280;29273;49.962;9.768;2023-03-31T06:47:35;98468.31;;;13.31;64.02
38780;BME280;29273;49.962;9.768;2023-03-31T06:50:04;98453.75;;;13.34;63.96
38780;BME280;29273;49.962;9.768;2023-03-31T06:52:31;98434.78;;;13.30;63.72
38780;BME280;29273;49.962;9.768;2023-03-31T06:54:56;98421.78;;;13.29;63.93
38780;BME280;29273;49.962;9.768;2023-03-31T06:57:22;98423.59;;;13.28;63.76
38780;BME280;29273;49.962;9.768;2023-03-31T06:59:47;98409.78;;;13.26;63.74
38780;BME280;29273;49.962;9.768;2023-03-31T07:02:13;98403.09;;;13.24;63.68
38780;BME280;29273;49.962;9.768;2023-03-31T07:04:38;98403.09;;;13.24;63.94
38780;BME280;29273;49.962;9.768;2023-03-31T07:07:03;98391.38;;;13.20;63.89
38780;BME280;29273;49.962;9.768;2023-03-31T07:09:29;98386.31;;;13.18;64.09
38780;BME280;29273;49.962;9.768;2023-03-31T07:11:54;98383.66;;;13.18;64.06
38780;BME280;29273;49.962;9.768;2023-03-31T07:14:20;98374.34;;;13.16;64.20
38780;BME280;29273;49.962;9.768;2023-03-31T07:16:47;98363.72;;;13.16;64.19
38780;BME280;29273;49.962;9.768;2023-03-31T07:19:12;98359.69;;;13.13;64.73
38780;BME280;29273;49.962;9.768;2023-03-31T07:21:39;98353.59;;;13.12;64.53
38780;BME280;29273;49.962;9.768;2023-03-31T07:24:05;98352.75;;;13.12;64.88
38780;BME280;29273;49.962;9.768;2023-03-31T07:26:30;98349.56;;;13.10;64.87
38780;BME280;29273;49.962;9.768;2023-03-31T07:28:56;98342.63;;;13.09;64.83
38780;BME280;29273;49.962;9.768;2023-03-31T07:31:22;98338.13;;;13.09;64.72
38780;BME280;29273;49.962;9.768;2023-03-31T07:33:48;98339.19;;;13.08;64.72
38780;BME280;29273;49.962;9.768;2023-03-31T07:36:13;98315.50;;;13.07;64.75
38780;BME280;29273;49.962;9.768;2023-03-31T07:38:40;98326.16;;;13.07;65.01
38780;BME280;29273;49.962;9.768;2023-03-31T07:41:10;98321.13;;;13.10;64.97
38780;BME280;29273;49.962;9.768;2023-03-31T07:43:36;98320.28;;;13.05;65.02
38780;BME280;29273;49.962;9.768;2023-03-31T07:46:02;98320.03;;;13.06;65.22
38780;BME280;29273;49.962;9.768;2023-03-31T07:48:29;98310.44;;;13.05;65.38
38780;BME280;29273;49.962;9.768;2023-03-31T07:50:54;98305.13;;;13.05;65.26
38780;BME280;29273;49.962;9.768;2023-03-31T07:53:27;98304.09;;;13.06;65.30
38780;BME280;29273;49.962;9.768;2023-03-31T07:55:53;98313.94;;;13.06;65.22
38780;BME280;29273;49.962;9.768;2023-03-31T07:58:18;98299.81;;;13.05;65.51
38780;BME280;29273;49.962;9.768;2023-03-31T08:00:44;98305.13;;;13.05;65.35
38780;BME280;29273;49.962;9.768;2023-03-31T08:03:09;98294.50;;;13.05;65.53
38780;BME280;29273;49.962;9.768;2023-03-31T08:05:35;98274.31;;;13.04;65.42
38780;BME280;29273;49.962;9.768;2023-03-31T08:08:00;98269.00;;;13.04;65.45
38780;BME280;29273;49.962;9.768;2023-03-31T08:10:26;98269.53;;;13.06;65.84
38780;BME280;29273;49.962;9.768;2023-03-31T08:12:52;98260.53;;;13.07;65.58
38780;BME280;29273;49.962;9.768;2023-03-31T08:15:18;98267.16;;;13.10;65.84
38780;BME280;29273;49.962;9.768;2023-03-31T08:17:44;98259.47;;;13.13;66.25
38780;BME280;29273;49.962;9.768;2023-03-31T08:20:10;98256.31;;;13.17;66.11
38780;BME280;29273;49.962;9.768;2023-03-31T08:22:37;98247.84;;;13.20;66.06
38780;BME280;29273;49.962;9.768;2023-03-31T08:25:04;98256.63;;;13.25;66.44
38780;BME280;29273;49.962;9.768;2023-03-31T08:27:37;98257.78;;;13.35;66.43
38780;BME280;29273;49.962;9.768;2023-03-31T08:30:05;98258.06;;;13.38;66.72
38780;BME280;29273;49.962;9.768;2023-03-31T08:32:31;98253.84;;;13.42;66.81
38780;BME280;29273;49.962;9.768;2023-03-31T08:34:57;98260.25;;;13.46;66.53
38780;BME280;29273;49.962;9.768;2023-03-31T08:37:23;98265.59;;;13.51;66.21
38780;BME280;29273;49.962;9.768;2023-03-31T08:39:48;98261.63;;;13.54;66.09
38780;BME280;29273;49.962;9.768;2023-03-31T08:42:26;98273.34;;;13.63;66.02
38780;BME280;29273;49.962;9.768;2023-03-31T08:45:30;98256.56;;;13.58;65.84
38780;BME280;29273;49.962;9.768;2023-03-31T08:48:03;98252.88;;;13.64;65.05
38780;BME280;29273;49.962;9.768;2023-03-31T08:50:32;98244.34;;;13.62;65.04
38780;BME280;29273;49.962;9.768;2023-03-31T08:53:10;98248.09;;;13.66;64.66
38780;BME280;29273;49.962;9.768;2023-03-31T08:55:54;98249.38;;;13.58;63.99
38780;BME280;29273;49.962;9.768;2023-03-31T09:01:22;98251.25;;;13.58;63.83
38780;BME280;29273;49.962;9.768;2023-03-31T09:06:37;98262.41;;;13.55;62.55
38780;BME280;29273;49.962;9.768;2023-03-31T09:09:07;98253.91;;;13.53;62.42
38780;BME280;29273;49.962;9.768;2023-03-31T09:11:37;98263.97;;;13.50;62.45
38780;BME280;29273;49.962;9.768;2023-03-31T09:19:36;98266.38;;;13.52;62.42
38780;BME280;29273;49.962;9.768;2023-03-31T09:22:05;98260.25;;;13.51;62.68
38780;BME280;29273;49.962;9.768;2023-03-31T09:24:50;98262.66;;;13.53;62.21
38780;BME280;29273;49.962;9.768;2023-03-31T09:27:19;98285.25;;;13.50;62.37
38780;BME280;29273;49.962;9.768;2023-03-31T09:29:49;98306.53;;;13.50;61.77
38780;BME280;29273;49.962;9.768;2023-03-31T09:32:21;98303.06;;;13.50;62.70
38780;BME280;29273;49.962;9.768;2023-03-31T09:34:51;98309.19;;;13.50;62.62
38780;BME280;29273;49.962;9.768;2023-03-31T09:37:17;98317.38;;;13.44;62.42
38780;BME280;29273;49.962;9.768;2023-03-31T09:39:43;98315.25;;;13.41;62.69
38780;BME280;29273;49.962;9.768;2023-03-31T09:42:12;98293.44;;;13.44;63.14
38780;BME280;29273;49.962;9.768;2023-03-31T09:44:40;98229.59;;;13.39;63.03
38780;BME280;29273;49.962;9.768;2023-03-31T09:47:27;98186.81;;;13.40;63.15
38780;BME280;29273;49.962;9.768;2023-03-31T09:49:55;98186.75;;;13.30;63.04
38780;BME280;29273;49.962;9.768;2023-03-31T09:52:27;98218.69;;;13.35;62.80
38780;BME280;29273;49.962;9.768;2023-03-31T09:54:55;98246.84;;;13.31;62.74
38780;BME280;29273;49.962;9.768;2023-03-31T09:57:37;98248.75;;;13.36;63.40
38780;BME280;29273;49.962;9.768;2023-03-31T10:02:52;98250.38;;;13.42;64.24
38780;BME280;29273;49.962;9.768;2023-03-31T10:05:33;98252.00;;;13.48;64.52
38780;BME280;29273;49.962;9.768;2023-03-31T10:11:08;98251.78;;;13.60;64.87
38780;BME280;29273;49.962;9.768;2023-03-31T10:16:12;98272.09;;;13.81;64.15
38780;BME280;29273;49.962;9.768;2023-03-31T10:18:41;98252.16;;;13.84;63.28
38780;BME280;29273;49.962;9.768;2023-03-31T10:21:19;98257.53;;;13.94;63.88
38780;BME280;29273;49.962;9.768;2023-03-31T10:23:46;98238.88;;;13.94;63.45
38780;BME280;29273;49.962;9.768;2023-03-31T10:26:16;98233.06;;;14.02;64.25
38780;BME280;29273;49.962;9.768;2023-03-31T10:28:43;98244.25;;;14.04;63.46
38780;BME280;29273;49.962;9.768;2023-03-31T10:31:08;98233.84;;;14.08;63.31
38780;BME280;29273;49.962;9.768;2023-03-31T10:33:41;98238.94;;;14.20;63.66
38780;BME280;29273;49.962;9.768;2023-03-31T10:36:20;98235.22;;;14.21;62.90
38780;BME280;29273;49.962;9.768;2023-03-31T10:38:47;98225.34;;;14.16;61.83
38780;BME280;29273;49.962;9.768;2023-03-31T10:41:20;98235.22;;;14.21;62.34
38780;BME280;29273;49.962;9.768;2023-03-31T10:43:51;98228.56;;;14.18;60.78
38780;BME280;29273;49.962;9.768;2023-03-31T10:46:17;98241.59;;;14.15;59.59
38780;BME280;29273;49.962;9.768;2023-03-31T10:48:43;98243.19;;;14.16;58.75
38780;BME280;29273;49.962;9.768;2023-03-31T10:51:17;98278.31;;;14.07;56.64
38780;BME280;29273;49.962;9.768;2023-03-31T10:53:49;98264.75;;;14.09;57.59
38780;BME280;29273;49.962;9.768;2023-03-31T10:56:34;98255.94;;;14.09;57.51
38780;BME280;29273;49.962;9.768;2023-03-31T11:01:45;98238.38;;;14.02;56.64
38780;BME280;29273;49.962;9.768;2023-03-31T11:09:35;98206.97;;;13.99;57.52
38780;BME280;29273;49.962;9.768;2023-03-31T11:18:03;98182.50;;;14.23;59.73
38780;BME280;29273;49.962;9.768;2023-03-31T11:26:19;98169.19;;;14.49;59.46
38780;BME280;29273;49.962;9.768;2023-03-31T11:28:57;98167.59;;;14.58;59.87
38780;BME280;29273;49.962;9.768;2023-03-31T11:32:36;98169.50;;;14.63;59.47
38780;BME280;29273;49.962;9.768;2023-03-31T11:42:41;98167.31;;;14.80;57.11
38780;BME280;29273;49.962;9.768;2023-03-31T11:45:15;98169.97;;;14.85;57.22
38780;BME280;29273;49.962;9.768;2023-03-31T11:47:44;98170.53;;;14.87;56.13
38780;BME280;29273;49.962;9.768;2023-03-31T11:50:13;98169.97;;;14.95;56.42
38780;BME280;29273;49.962;9.768;2023-03-31T11:52:47;98173.94;;;15.03;55.90
38780;BME280;29273;49.962;9.768;2023-03-31T11:55:19;98180.06;;;15.09;56.79
38780;BME280;29273;49.962;9.768;2023-03-31T11:58:02;98158.72;;;15.14;56.58
38780;BME280;29273;49.962;9.768;2023-03-31T12:00:42;98161.63;;;15.17;56.59
38780;BME280;29273;49.962;9.768;2023-03-31T12:05:39;98170.13;;;15.25;55.75
38780;BME280;29273;49.962;9.768;2023-03-31T12:08:12;98161.59;;;15.28;56.83
38780;BME280;29273;49.962;9.768;2023-03-31T12:10:45;98163.72;;;15.31;57.01
38780;BME280;29273;49.962;9.768;2023-03-31T12:13:32;98170.13;;;15.30;56.91
38780;BME280;29273;49.962;9.768;2023-03-31T12:16:39;98176.28;;;15.20;55.58
38780;BME280;29273;49.962;9.768;2023-03-31T12:19:17;98163.22;;;15.29;57.64
38780;BME280;29273;49.962;9.768;2023-03-31T12:21:54;98162.38;;;15.28;57.66
38780;BME280;29273;49.962;9.768;2023-03-31T12:24:20;98151.75;;;15.18;56.61
38780;BME280;29273;49.962;9.768;2023-03-31T12:29:28;98142.44;;;15.21;58.07
38780;BME280;29273;49.962;9.768;2023-03-31T12:31:57;98127.75;;;15.18;57.92
38780;BME280;29273;49.962;9.768;2023-03-31T12:34:25;98130.69;;;15.22;58.00
38780;BME280;29273;49.962;9.768;2023-03-31T12:50:23;98081.69;;;15.62;58.68
38780;BME280;29273;49.962;9.768;2023-03-31T12:55:53;98079.75;;;15.68;54.37
38780;BME280;29273;49.962;9.768;2023-03-31T13:03:43;98093.56;;;15.85;56.92
38780;BME280;29273;49.962;9.768;2023-03-31T13:09:04;98092.13;;;15.98;57.36
38780;BME280;29273;49.962;9.768;2023-03-31T13:14:50;98100.06;;;16.03;55.81
38780;BME280;29273;49.962;9.768;2023-03-31T13:17:25;98096.13;;;16.01;54.36
38780;BME280;29273;49.962;9.768;2023-03-31T13:19:52;98110.25;;;16.01;54.75
38780;BME280;29273;49.962;9.768;2023-03-31T13:25:25;98105.47;;;15.98;55.61
38780;BME280;29273;49.962;9.768;2023-03-31T13:27:51;98095.91;;;15.92;54.86
38780;BME280;29273;49.962;9.768;2023-03-31T13:30:43;98096.16;;;15.96;57.00
38780;BME280;29273;49.962;9.768;2023-03-31T13:33:12;98088.13;;;15.96;56.27
38780;BME280;29273;49.962;9.768;2023-03-31T13:35:40;98097.72;;;15.97;56.28
38780;BME280;29273;49.962;9.768;2023-03-31T13:41:23;98099.66;;;15.91;55.43
38780;BME280;29273;49.962;9.768;2023-03-31T13:44:25;98097.03;;;15.86;56.44
38780;BME280;29273;49.962;9.768;2023-03-31T13:59:04;98039.97;;;15.71;58.06
38780;BME280;29273;49.962;9.768;2023-03-31T14:04:58;98053.63;;;15.65;57.82
38780;BME280;29273;49.962;9.768;2023-03-31T14:07:33;98048.56;;;15.63;58.15
38780;BME280;29273;49.962;9.768;2023-03-31T14:10:01;98037.66;;;15.60;57.46
38780;BME280;29273;49.962;9.768;2023-03-31T14:12:34;98031.72;;;15.68;58.56
38780;BME280;29273;49.962;9.768;2023-03-31T14:15:01;98022.38;;;15.65;57.90
38780;BME280;29273;49.962;9.768;2023-03-31T14:17:46;98023.69;;;15.73;59.33
38780;BME280;29273;49.962;9.768;2023-03-31T14:20:22;98027.09;;;15.84;59.44
38780;BME280;29273;49.962;9.768;2023-03-31T14:26:05;98026.19;;;15.99;59.18
38780;BME280;29273;49.962;9.768;2023-03-31T14:28:49;98026.09;;;16.09;58.79
38780;BME280;29273;49.962;9.768;2023-03-31T14:31:30;98032.41;;;16.18;59.02
38780;BME280;29273;49.962;9.768;2023-03-31T14:34:20;98031.88;;;16.16;56.03
38780;BME280;29273;49.962;9.768;2023-03-31T14:37:00;98063.06;;;16.26;58.05
38780;BME280;29273;49.962;9.768;2023-03-31T14:39:30;98086.81;;;16.27;57.21
38780;BME280;29273;49.962;9.768;2023-03-31T14:42:11;98121.84;;;16.21;57.22
38780;BME280;29273;49.962;9.768;2023-03-31T14:44:38;98134.47;;;16.10;55.82
38780;BME280;29273;49.962;9.768;2023-03-31T14:47:05;98142.53;;;16.05;55.45
38780;BME280;29273;49.962;9.768;2023-03-31T14:49:35;98135.91;;;15.97;56.34
38780;BME280;29273;49.962;9.768;2023-03-31T14:52:13;98109.59;;;15.80;55.47
38780;BME280;29273;49.962;9.768;2023-03-31T14:54:39;98078.72;;;15.59;54.88
38780;BME280;29273;49.962;9.768;2023-03-31T14:57:05;98064.97;;;15.41;55.26
38780;BME280;29273;49.962;9.768;2023-03-31T14:59:32;98065.34;;;15.24;56.07
38780;BME280;29273;49.962;9.768;2023-03-31T15:02:00;98057.44;;;15.09;56.19
38780;BME280;29273;49.962;9.768;2023-03-31T15:04:28;98079.63;;;14.94;56.03
38780;BME280;29273;49.962;9.768;2023-03-31T15:06:55;98081.53;;;14.78;56.31
38780;BME280;29273;49.962;9.768;2023-03-31T15:09:29;98069.53;;;14.70;57.30
38780;BME280;29273;49.962;9.768;2023-03-31T15:12:03;98066.66;;;14.61;58.10
38780;BME280;29273;49.962;9.768;2023-03-31T15:14:31;98065.31;;;14.54;58.41
38780;BME280;29273;49.962;9.768;2023-03-31T15:16:59;98058.41;;;14.48;58.58
38780;BME280;29273;49.962;9.768;2023-03-31T15:19:33;98049.03;;;14.55;59.98
38780;BME280;29273;49.962;9.768;2023-03-31T15:22:16;98052.81;;;14.59;60.22
38780;BME280;29273;49.962;9.768;2023-03-31T15:24:43;98040.25;;;14.65;60.25
38780;BME280;29273;49.962;9.768;2023-03-31T15:29:55;98035.66;;;14.86;60.09
38780;BME280;29273;49.962;9.768;2023-03-31T15:32:33;98041.47;;;14.98;61.07
38780;BME280;29273;49.962;9.768;2023-03-31T15:34:59;98031.88;;;14.97;60.24
38780;BME280;29273;49.962;9.768;2023-03-31T15:37:27;98030.78;;;15.04;60.63
38780;BME280;29273;49.962;9.768;2023-03-31T15:39:57;98027.56;;;15.07;60.33
38780;BME280;29273;49.962;9.768;2023-03-31T15:42:25;98037.44;;;15.06;59.81
38780;BME280;29273;49.962;9.768;2023-03-31T15:47:22;98035.81;;;15.15;60.51